sensor_id;sensor_type;location;lat;lon;timestamp;temperature;humidity
14401;DHT22;7285;50.894;5.462;2023-07-02T00:02:08;15.40;1.00
14401;DHT22;7285;50.894;5.462;2023-07-02T00:04:35;15.40;1.00
14401;DHT22;7285;50.894;5.462;2023-07-02T00:07:05;15.40;99.90
14401;DHT22;7285;50.894;5.462;2023-07-02T00:09:32;15.40;99.90
14401;DHT22;7285;50.894;5.462;2023-07-02T00:11:58;15.40;1.00
14401;DHT22;7285;50.894;5.462;2023-07-02T00:14:25;15.40;99.90
14401;DHT22;7285;50.894;5.462;2023-07-02T00:16:52;15.30;99.90
14401;DHT22;7285;50.894;5.462;2023-07-02T00:19:19;15.30;24.10
14401;DHT22;7285;50.894;5.462;2023-07-02T00:21:46;15.30;99.90
14401;DHT22;7285;50.894;5.462;2023-07-02T00:24:15;15.30;99.90
14401;DHT22;7285;50.894;5.462;2023-07-02T00:26:43;15.30;1.00
14401;DHT22;7285;50.894;5.462;2023-07-02T00:29:10;15.20;99.90
14401;DHT22;7285;50.894;5.462;2023-07-02T00:31:37;15.30;1.00
14401;DHT22;7285;50.894;5.462;2023-07-02T00:34:04;15.30;99.90
14401;DHT22;7285;50.894;5.462;2023-07-02T00:36:31;15.30;1.00
14401;DHT22;7285;50.894;5.462;2023-07-02T00:38:59;15.30;1.00
14401;DHT22;7285;50.894;5.462;2023-07-02T00:41:27;15.30;99.90
14401;DHT22;7285;50.894;5.462;2023-07-02T00:43:54;15.30;1.00
14401;DHT22;7285;50.894;5.462;2023-07-02T00:46:22;15.20;1.00
14401;DHT22;7285;50.894;5.462;2023-07-02T00:48:52;15.20;26.00
14401;DHT22;7285;50.894;5.462;2023-07-02T00:51:20;15.20;1.00
14401;DHT22;7285;50.894;5.462;2023-07-02T00:53:48;15.30;99.90
14401;DHT22;7285;50.894;5.462;2023-07-02T00:56:17;15.30;99.90
14401;DHT22;7285;50.894;5.462;2023-07-02T00:58:47;15.20;1.00
14401;DHT22;7285;50.894;5.462;2023-07-02T01:01:16;15.20;1.00
14401;DHT22;7285;50.894;5.462;2023-07-02T01:03:51;15.20;1.00
14401;DHT22;7285;50.894;5.462;2023-07-02T01:06:19;15.20;1.00
14401;DHT22;7285;50.894;5.462;2023-07-02T01:08:51;15.20;1.00
14401;DHT22;7285;50.894;5.462;2023-07-02T01:11:18;15.20;1.00
14401;DHT22;7285;50.894;5.462;2023-07-02T01:13:47;15.20;1.00
14401;DHT22;7285;50.894;5.462;2023-07-02T01:16:15;15.20;1.00
14401;DHT22;7285;50.894;5.462;2023-07-02T01:18:43;15.20;1.00
14401;DHT22;7285;50.894;5.462;2023-07-02T01:21:12;15.20;99.90
14401;DHT22;7285;50.894;5.462;2023-07-02T01:23:39;15.20;99.90
14401;DHT22;7285;50.894;5.462;2023-07-02T01:26:06;15.30;99.90
14401;DHT22;7285;50.894;5.462;2023-07-02T01:28:35;15.20;1.00
14401;DHT22;7285;50.894;5.462;2023-07-02T01:31:03;15.30;99.90
14401;DHT22;7285;50.894;5.462;2023-07-02T01:33:31;15.30;99.90
14401;DHT22;7285;50.894;5.462;2023-07-02T01:35:58;15.30;99.90
14401;DHT22;7285;50.894;5.462;2023-07-02T01:38:26;15.30;1.00
14401;DHT22;7285;50.894;5.462;2023-07-02T01:40:56;15.30;99.90
14401;DHT22;7285;50.894;5.462;2023-07-02T01:43:23;15.30;1.00
14401;DHT22;7285;50.894;5.462;2023-07-02T01:45:49;15.30;1.00
14401;DHT22;7285;50.894;5.462;2023-07-02T01:48:16;15.30;1.00
14401;DHT22;7285;50.894;5.462;2023-07-02T01:50:43;15.30;1.00
14401;DHT22;7285;50.894;5.462;2023-07-02T01:53:10;15.30;1.00
14401;DHT22;7285;50.894;5.462;2023-07-02T01:55:38;15.30;1.00
14401;DHT22;7285;50.894;5.462;2023-07-02T01:58:05;15.30;75.30
14401;DHT22;7285;50.894;5.462;2023-07-02T02:00:32;15.30;99.90
14401;DHT22;7285;50.894;5.462;2023-07-02T02:02:59;15.20;10.30
14401;DHT22;7285;50.894;5.462;2023-07-02T02:05:26;15.30;1.00
14401;DHT22;7285;50.894;5.462;2023-07-02T02:07:53;15.30;1.00
14401;DHT22;7285;50.894;5.462;2023-07-02T02:10:20;15.30;1.00
14401;DHT22;7285;50.894;5.462;2023-07-02T02:12:48;15.30;1.00
14401;DHT22;7285;50.894;5.462;2023-07-02T02:15:15;15.30;3.70
14401;DHT22;7285;50.894;5.462;2023-07-02T02:17:42;15.30;99.90
14401;DHT22;7285;50.894;5.462;2023-07-02T02:20:10;15.30;99.90
14401;DHT22;7285;50.894;5.462;2023-07-02T02:22:37;15.30;1.00
14401;DHT22;7285;50.894;5.462;2023-07-02T02:25:04;15.30;1.00
14401;DHT22;7285;50.894;5.462;2023-07-02T02:27:31;15.30;1.00
14401;DHT22;7285;50.894;5.462;2023-07-02T02:29:59;15.30;1.00
14401;DHT22;7285;50.894;5.462;2023-07-02T02:32:26;15.30;1.00
14401;DHT22;7285;50.894;5.462;2023-07-02T02:34:54;15.30;1.00
14401;DHT22;7285;50.894;5.462;2023-07-02T02:37:21;15.30;1.00
14401;DHT22;7285;50.894;5.462;2023-07-02T02:39:49;15.30;1.00
14401;DHT22;7285;50.894;5.462;2023-07-02T02:42:16;15.30;1.00
14401;DHT22;7285;50.894;5.462;2023-07-02T02:44:43;15.30;1.00
14401;DHT22;7285;50.894;5.462;2023-07-02T02:47:11;15.30;1.00
14401;DHT22;7285;50.894;5.462;2023-07-02T02:49:38;15.30;1.00
14401;DHT22;7285;50.894;5.462;2023-07-02T02:52:06;15.30;1.00
14401;DHT22;7285;50.894;5.462;2023-07-02T02:54:33;15.40;1.00
14401;DHT22;7285;50.894;5.462;2023-07-02T02:57:00;15.30;1.00
14401;DHT22;7285;50.894;5.462;2023-07-02T02:59:27;15.40;1.00
14401;DHT22;7285;50.894;5.462;2023-07-02T03:01:54;15.40;1.00
14401;DHT22;7285;50.894;5.462;2023-07-02T03:04:22;15.40;1.00
14401;DHT22;7285;50.894;5.462;2023-07-02T03:06:51;15.30;1.00
14401;DHT22;7285;50.894;5.462;2023-07-02T03:09:18;15.40;1.00
14401;DHT22;7285;50.894;5.462;2023-07-02T03:11:46;15.30;1.00
14401;DHT22;7285;50.894;5.462;2023-07-02T03:14:13;15.30;1.00
14401;DHT22;7285;50.894;5.462;2023-07-02T03:16:40;15.30;1.00
14401;DHT22;7285;50.894;5.462;2023-07-02T03:19:07;15.30;99.90
14401;DHT22;7285;50.894;5.462;2023-07-02T03:21:35;15.30;99.90
14401;DHT22;7285;50.894;5.462;2023-07-02T03:24:02;15.20;99.90
14401;DHT22;7285;50.894;5.462;2023-07-02T03:26:29;15.20;99.90
14401;DHT22;7285;50.894;5.462;2023-07-02T03:28:56;15.20;1.00
14401;DHT22;7285;50.894;5.462;2023-07-02T03:31:23;15.20;1.00
14401;DHT22;7285;50.894;5.462;2023-07-02T03:33:50;15.20;1.00
14401;DHT22;7285;50.894;5.462;2023-07-02T03:36:17;15.10;1.00
14401;DHT22;7285;50.894;5.462;2023-07-02T03:38:45;15.10;1.00
14401;DHT22;7285;50.894;5.462;2023-07-02T03:41:12;15.10;1.00
14401;DHT22;7285;50.894;5.462;2023-07-02T03:43:39;15.10;1.00
14401;DHT22;7285;50.894;5.462;2023-07-02T03:46:06;15.10;1.00
14401;DHT22;7285;50.894;5.462;2023-07-02T03:48:33;15.10;99.90
14401;DHT22;7285;50.894;5.462;2023-07-02T03:51:01;15.10;99.90
14401;DHT22;7285;50.894;5.462;2023-07-02T03:53:32;15.10;1.00
14401;DHT22;7285;50.894;5.462;2023-07-02T03:56:00;15.10;1.00
14401;DHT22;7285;50.894;5.462;2023-07-02T03:58:27;15.10;1.00
14401;DHT22;7285;50.894;5.462;2023-07-02T04:00:54;15.10;1.00
14401;DHT22;7285;50.894;5.462;2023-07-02T04:03:20;15.10;1.00
14401;DHT22;7285;50.894;5.462;2023-07-02T04:05:47;15.10;1.00
14401;DHT22;7285;50.894;5.462;2023-07-02T04:08:15;15.10;1.00
14401;DHT22;7285;50.894;5.462;2023-07-02T04:10:41;15.10;1.00
14401;DHT22;7285;50.894;5.462;2023-07-02T04:13:10;15.10;99.90
14401;DHT22;7285;50.894;5.462;2023-07-02T04:15:37;15.10;99.90
14401;DHT22;7285;50.894;5.462;2023-07-02T04:18:03;15.10;18.90
14401;DHT22;7285;50.894;5.462;2023-07-02T04:20:30;15.20;1.00
14401;DHT22;7285;50.894;5.462;2023-07-02T04:22:57;15.20;99.90
14401;DHT22;7285;50.894;5.462;2023-07-02T04:25:24;15.20;1.00
14401;DHT22;7285;50.894;5.462;2023-07-02T04:27:51;15.20;99.90
14401;DHT22;7285;50.894;5.462;2023-07-02T04:30:23;15.20;99.90
14401;DHT22;7285;50.894;5.462;2023-07-02T04:32:50;15.20;99.90
14401;DHT22;7285;50.894;5.462;2023-07-02T04:35:17;15.20;1.00
14401;DHT22;7285;50.894;5.462;2023-07-02T04:37:45;15.20;1.00
14401;DHT22;7285;50.894;5.462;2023-07-02T04:40:12;15.20;1.00
14401;DHT22;7285;50.894;5.462;2023-07-02T04:42:42;15.20;1.00
14401;DHT22;7285;50.894;5.462;2023-07-02T04:45:13;15.30;1.00
14401;DHT22;7285;50.894;5.462;2023-07-02T04:47:42;15.30;1.00
14401;DHT22;7285;50.894;5.462;2023-07-02T04:50:09;15.30;20.10
14401;DHT22;7285;50.894;5.462;2023-07-02T04:52:37;15.30;1.00
14401;DHT22;7285;50.894;5.462;2023-07-02T04:55:06;15.30;1.00
14401;DHT22;7285;50.894;5.462;2023-07-02T04:57:33;15.30;1.00
14401;DHT22;7285;50.894;5.462;2023-07-02T05:00:00;15.30;1.00
14401;DHT22;7285;50.894;5.462;2023-07-02T05:02:26;15.40;99.90
14401;DHT22;7285;50.894;5.462;2023-07-02T05:04:55;15.40;99.90
14401;DHT22;7285;50.894;5.462;2023-07-02T05:07:22;15.40;99.90
14401;DHT22;7285;50.894;5.462;2023-07-02T05:09:48;15.40;99.90
14401;DHT22;7285;50.894;5.462;2023-07-02T05:12:18;15.50;60.60
14401;DHT22;7285;50.894;5.462;2023-07-02T05:14:45;15.50;99.90
14401;DHT22;7285;50.894;5.462;2023-07-02T05:17:12;15.50;1.00
14401;DHT22;7285;50.894;5.462;2023-07-02T05:19:40;15.50;1.00
14401;DHT22;7285;50.894;5.462;2023-07-02T05:22:09;15.50;1.00
14401;DHT22;7285;50.894;5.462;2023-07-02T05:24:36;15.60;1.00
14401;DHT22;7285;50.894;5.462;2023-07-02T05:27:03;15.70;42.80
14401;DHT22;7285;50.894;5.462;2023-07-02T05:29:30;15.70;1.00
14401;DHT22;7285;50.894;5.462;2023-07-02T05:31:58;15.80;1.00
14401;DHT22;7285;50.894;5.462;2023-07-02T05:34:25;15.90;1.00
14401;DHT22;7285;50.894;5.462;2023-07-02T05:36:52;15.80;99.90
14401;DHT22;7285;50.894;5.462;2023-07-02T05:39:21;15.90;99.90
14401;DHT22;7285;50.894;5.462;2023-07-02T05:41:48;16.00;99.90
14401;DHT22;7285;50.894;5.462;2023-07-02T05:44:15;16.00;99.90
14401;DHT22;7285;50.894;5.462;2023-07-02T05:46:43;16.00;1.00
14401;DHT22;7285;50.894;5.462;2023-07-02T05:49:09;16.00;1.00
14401;DHT22;7285;50.894;5.462;2023-07-02T05:51:36;16.10;99.90
14401;DHT22;7285;50.894;5.462;2023-07-02T05:54:03;16.20;99.90
14401;DHT22;7285;50.894;5.462;2023-07-02T05:56:31;16.30;99.90
14401;DHT22;7285;50.894;5.462;2023-07-02T05:58:58;16.40;99.90
14401;DHT22;7285;50.894;5.462;2023-07-02T06:01:26;16.40;99.90
14401;DHT22;7285;50.894;5.462;2023-07-02T06:03:53;16.40;1.00
14401;DHT22;7285;50.894;5.462;2023-07-02T06:06:24;16.50;99.90
14401;DHT22;7285;50.894;5.462;2023-07-02T06:08:52;16.50;99.90
14401;DHT22;7285;50.894;5.462;2023-07-02T06:11:19;16.60;1.00
14401;DHT22;7285;50.894;5.462;2023-07-02T06:13:48;16.60;1.00
14401;DHT22;7285;50.894;5.462;2023-07-02T06:16:14;16.60;99.90
14401;DHT22;7285;50.894;5.462;2023-07-02T06:18:41;16.70;99.90
14401;DHT22;7285;50.894;5.462;2023-07-02T06:21:08;16.70;99.90
14401;DHT22;7285;50.894;5.462;2023-07-02T06:23:42;16.70;1.00
14401;DHT22;7285;50.894;5.462;2023-07-02T06:26:09;16.80;1.00
14401;DHT22;7285;50.894;5.462;2023-07-02T06:28:36;16.80;99.90
14401;DHT22;7285;50.894;5.462;2023-07-02T06:31:04;16.80;1.00
14401;DHT22;7285;50.894;5.462;2023-07-02T06:33:31;16.90;99.90
14401;DHT22;7285;50.894;5.462;2023-07-02T06:35:58;16.90;99.90
14401;DHT22;7285;50.894;5.462;2023-07-02T06:38:25;17.00;99.90
14401;DHT22;7285;50.894;5.462;2023-07-02T06:40:52;17.00;29.30
14401;DHT22;7285;50.894;5.462;2023-07-02T06:43:19;17.10;99.90
14401;DHT22;7285;50.894;5.462;2023-07-02T06:45:46;17.20;1.00
14401;DHT22;7285;50.894;5.462;2023-07-02T06:48:14;17.20;1.00
14401;DHT22;7285;50.894;5.462;2023-07-02T06:50:44;17.10;99.90
14401;DHT22;7285;50.894;5.462;2023-07-02T06:53:12;17.20;99.90
14401;DHT22;7285;50.894;5.462;2023-07-02T06:55:39;17.10;1.00
14401;DHT22;7285;50.894;5.462;2023-07-02T06:58:06;17.30;1.00
14401;DHT22;7285;50.894;5.462;2023-07-02T07:00:33;17.40;1.00
14401;DHT22;7285;50.894;5.462;2023-07-02T07:03:01;17.40;99.90
14401;DHT22;7285;50.894;5.462;2023-07-02T07:05:30;17.50;99.90
14401;DHT22;7285;50.894;5.462;2023-07-02T07:07:57;17.60;99.90
14401;DHT22;7285;50.894;5.462;2023-07-02T07:10:24;17.70;6.50
14401;DHT22;7285;50.894;5.462;2023-07-02T07:12:51;17.80;1.00
14401;DHT22;7285;50.894;5.462;2023-07-02T07:15:18;17.90;1.00
14401;DHT22;7285;50.894;5.462;2023-07-02T07:17:45;17.90;1.00
14401;DHT22;7285;50.894;5.462;2023-07-02T07:20:12;18.00;1.00
14401;DHT22;7285;50.894;5.462;2023-07-02T07:22:40;18.00;1.00
14401;DHT22;7285;50.894;5.462;2023-07-02T07:25:08;18.00;99.90
14401;DHT22;7285;50.894;5.462;2023-07-02T07:27:35;18.00;99.90
14401;DHT22;7285;50.894;5.462;2023-07-02T07:30:03;18.00;99.90
14401;DHT22;7285;50.894;5.462;2023-07-02T07:32:30;18.00;1.00
14401;DHT22;7285;50.894;5.462;2023-07-02T07:34:57;18.30;1.00
14401;DHT22;7285;50.894;5.462;2023-07-02T07:37:24;18.20;1.00
14401;DHT22;7285;50.894;5.462;2023-07-02T07:39:53;18.20;41.90
14401;DHT22;7285;50.894;5.462;2023-07-02T07:42:20;18.20;1.00
14401;DHT22;7285;50.894;5.462;2023-07-02T07:44:47;18.30;1.00
14401;DHT22;7285;50.894;5.462;2023-07-02T07:47:14;18.30;1.00
14401;DHT22;7285;50.894;5.462;2023-07-02T07:49:40;18.30;1.00
14401;DHT22;7285;50.894;5.462;2023-07-02T07:52:07;18.40;1.00
14401;DHT22;7285;50.894;5.462;2023-07-02T07:54:34;18.50;99.90
14401;DHT22;7285;50.894;5.462;2023-07-02T07:57:03;18.50;1.00
14401;DHT22;7285;50.894;5.462;2023-07-02T07:59:30;18.50;99.90
14401;DHT22;7285;50.894;5.462;2023-07-02T08:01:57;18.80;1.00
14401;DHT22;7285;50.894;5.462;2023-07-02T08:04:24;18.90;99.90
14401;DHT22;7285;50.894;5.462;2023-07-02T08:06:51;19.10;99.90
14401;DHT22;7285;50.894;5.462;2023-07-02T08:09:18;19.00;99.90
14401;DHT22;7285;50.894;5.462;2023-07-02T08:11:46;19.10;99.90
14401;DHT22;7285;50.894;5.462;2023-07-02T08:14:14;19.10;99.90
14401;DHT22;7285;50.894;5.462;2023-07-02T08:16:41;19.00;29.90
14401;DHT22;7285;50.894;5.462;2023-07-02T08:19:08;19.10;99.90
14401;DHT22;7285;50.894;5.462;2023-07-02T08:21:35;19.30;1.00
14401;DHT22;7285;50.894;5.462;2023-07-02T08:24:03;19.40;1.00
14401;DHT22;7285;50.894;5.462;2023-07-02T08:26:30;19.90;27.50
14401;DHT22;7285;50.894;5.462;2023-07-02T08:28:56;19.70;1.00
14401;DHT22;7285;50.894;5.462;2023-07-02T08:31:26;20.00;1.00
14401;DHT22;7285;50.894;5.462;2023-07-02T08:33:53;20.30;1.00
14401;DHT22;7285;50.894;5.462;2023-07-02T08:36:20;20.30;1.00
14401;DHT22;7285;50.894;5.462;2023-07-02T08:38:46;19.90;1.00
14401;DHT22;7285;50.894;5.462;2023-07-02T08:41:13;19.80;1.00
14401;DHT22;7285;50.894;5.462;2023-07-02T08:43:40;19.70;1.00
14401;DHT22;7285;50.894;5.462;2023-07-02T08:46:07;19.60;1.00
14401;DHT22;7285;50.894;5.462;2023-07-02T08:48:36;19.40;1.00
14401;DHT22;7285;50.894;5.462;2023-07-02T08:51:03;19.40;1.00
14401;DHT22;7285;50.894;5.462;2023-07-02T08:53:30;19.30;1.00
14401;DHT22;7285;50.894;5.462;2023-07-02T08:55:59;19.30;1.00
14401;DHT22;7285;50.894;5.462;2023-07-02T08:58:26;19.40;1.00
14401;DHT22;7285;50.894;5.462;2023-07-02T09:01:10;19.40;1.00
14401;DHT22;7285;50.894;5.462;2023-07-02T09:03:40;19.40;1.00
14401;DHT22;7285;50.894;5.462;2023-07-02T09:06:08;19.50;99.90
14401;DHT22;7285;50.894;5.462;2023-07-02T09:08:36;19.40;99.90
14401;DHT22;7285;50.894;5.462;2023-07-02T09:11:09;19.60;99.90
14401;DHT22;7285;50.894;5.462;2023-07-02T09:13:47;19.80;99.90
14401;DHT22;7285;50.894;5.462;2023-07-02T09:16:24;19.70;99.90
14401;DHT22;7285;50.894;5.462;2023-07-02T09:19:03;20.00;99.90
14401;DHT22;7285;50.894;5.462;2023-07-02T09:21:42;20.50;99.90
14401;DHT22;7285;50.894;5.462;2023-07-02T09:24:13;20.20;1.00
14401;DHT22;7285;50.894;5.462;2023-07-02T09:26:42;20.10;1.00
14401;DHT22;7285;50.894;5.462;2023-07-02T09:29:10;19.70;1.00
14401;DHT22;7285;50.894;5.462;2023-07-02T09:31:44;19.50;1.00
14401;DHT22;7285;50.894;5.462;2023-07-02T09:34:12;19.50;1.00
14401;DHT22;7285;50.894;5.462;2023-07-02T09:36:39;19.40;1.00
14401;DHT22;7285;50.894;5.462;2023-07-02T09:39:08;20.00;1.00
14401;DHT22;7285;50.894;5.462;2023-07-02T09:41:35;20.60;1.00
14401;DHT22;7285;50.894;5.462;2023-07-02T09:44:02;21.20;1.00
14401;DHT22;7285;50.894;5.462;2023-07-02T09:46:30;21.80;1.00
14401;DHT22;7285;50.894;5.462;2023-07-02T09:48:58;21.60;1.00
14401;DHT22;7285;50.894;5.462;2023-07-02T09:51:27;21.20;1.00
14401;DHT22;7285;50.894;5.462;2023-07-02T09:53:54;21.10;1.00
14401;DHT22;7285;50.894;5.462;2023-07-02T09:56:21;20.50;1.00
14401;DHT22;7285;50.894;5.462;2023-07-02T09:58:48;20.50;1.00
14401;DHT22;7285;50.894;5.462;2023-07-02T10:01:15;20.70;1.00
14401;DHT22;7285;50.894;5.462;2023-07-02T10:03:42;21.30;1.00
14401;DHT22;7285;50.894;5.462;2023-07-02T10:06:09;21.60;1.00
14401;DHT22;7285;50.894;5.462;2023-07-02T10:08:37;21.60;1.00
14401;DHT22;7285;50.894;5.462;2023-07-02T10:11:12;21.80;1.00
14401;DHT22;7285;50.894;5.462;2023-07-02T10:13:39;21.90;1.00
14401;DHT22;7285;50.894;5.462;2023-07-02T10:16:07;21.40;99.90
14401;DHT22;7285;50.894;5.462;2023-07-02T10:18:34;21.20;99.90
14401;DHT22;7285;50.894;5.462;2023-07-02T10:21:13;21.10;99.90
14401;DHT22;7285;50.894;5.462;2023-07-02T10:23:41;20.90;1.00
14401;DHT22;7285;50.894;5.462;2023-07-02T10:26:14;20.80;99.90
14401;DHT22;7285;50.894;5.462;2023-07-02T10:28:41;20.50;99.90
14401;DHT22;7285;50.894;5.462;2023-07-02T10:31:19;20.40;99.90
14401;DHT22;7285;50.894;5.462;2023-07-02T10:33:46;20.40;1.00
14401;DHT22;7285;50.894;5.462;2023-07-02T10:36:18;20.30;1.00
14401;DHT22;7285;50.894;5.462;2023-07-02T10:38:47;20.20;1.00
14401;DHT22;7285;50.894;5.462;2023-07-02T10:41:23;20.10;1.00
14401;DHT22;7285;50.894;5.462;2023-07-02T10:43:51;20.20;1.00
14401;DHT22;7285;50.894;5.462;2023-07-02T10:46:21;20.40;1.00
14401;DHT22;7285;50.894;5.462;2023-07-02T10:48:52;20.50;1.00
14401;DHT22;7285;50.894;5.462;2023-07-02T10:51:19;20.50;1.00
14401;DHT22;7285;50.894;5.462;2023-07-02T10:53:56;20.60;1.00
14401;DHT22;7285;50.894;5.462;2023-07-02T10:56:24;21.10;1.00
14401;DHT22;7285;50.894;5.462;2023-07-02T10:58:52;21.80;1.00
14401;DHT22;7285;50.894;5.462;2023-07-02T11:01:22;22.10;1.00
14401;DHT22;7285;50.894;5.462;2023-07-02T11:03:56;22.70;1.00
14401;DHT22;7285;50.894;5.462;2023-07-02T11:06:23;22.40;1.00
14401;DHT22;7285;50.894;5.462;2023-07-02T11:08:51;22.10;1.00
14401;DHT22;7285;50.894;5.462;2023-07-02T11:11:20;21.70;1.00
14401;DHT22;7285;50.894;5.462;2023-07-02T11:13:48;21.50;1.00
14401;DHT22;7285;50.894;5.462;2023-07-02T11:16:23;21.40;99.90
14401;DHT22;7285;50.894;5.462;2023-07-02T11:18:54;21.30;99.90
14401;DHT22;7285;50.894;5.462;2023-07-02T11:21:21;21.20;99.90
14401;DHT22;7285;50.894;5.462;2023-07-02T11:23:48;21.00;1.00
14401;DHT22;7285;50.894;5.462;2023-07-02T11:26:16;21.00;1.00
14401;DHT22;7285;50.894;5.462;2023-07-02T11:28:50;20.90;1.00
14401;DHT22;7285;50.894;5.462;2023-07-02T11:31:26;21.60;1.00
14401;DHT22;7285;50.894;5.462;2023-07-02T11:33:53;22.60;1.00
14401;DHT22;7285;50.894;5.462;2023-07-02T11:36:22;22.70;1.00
14401;DHT22;7285;50.894;5.462;2023-07-02T11:38:50;22.50;1.00
14401;DHT22;7285;50.894;5.462;2023-07-02T11:41:19;22.10;1.00
14401;DHT22;7285;50.894;5.462;2023-07-02T11:43:46;21.90;1.00
14401;DHT22;7285;50.894;5.462;2023-07-02T11:46:14;21.80;1.00
14401;DHT22;7285;50.894;5.462;2023-07-02T11:48:41;21.50;1.00
14401;DHT22;7285;50.894;5.462;2023-07-02T11:51:08;21.10;1.00
14401;DHT22;7285;50.894;5.462;2023-07-02T11:53:35;20.90;1.00
14401;DHT22;7285;50.894;5.462;2023-07-02T11:56:02;20.70;1.00
14401;DHT22;7285;50.894;5.462;2023-07-02T11:58:30;20.80;1.00
14401;DHT22;7285;50.894;5.462;2023-07-02T12:00:57;20.90;1.00
14401;DHT22;7285;50.894;5.462;2023-07-02T12:03:24;21.10;1.00
14401;DHT22;7285;50.894;5.462;2023-07-02T12:05:51;21.60;1.00
14401;DHT22;7285;50.894;5.462;2023-07-02T12:08:18;21.60;1.00
14401;DHT22;7285;50.894;5.462;2023-07-02T12:10:44;21.70;1.00
14401;DHT22;7285;50.894;5.462;2023-07-02T12:13:11;21.60;1.00
14401;DHT22;7285;50.894;5.462;2023-07-02T12:15:40;21.90;1.00
14401;DHT22;7285;50.894;5.462;2023-07-02T12:18:08;22.30;1.00
14401;DHT22;7285;50.894;5.462;2023-07-02T12:20:35;23.20;1.00
14401;DHT22;7285;50.894;5.462;2023-07-02T12:23:02;23.30;1.00
14401;DHT22;7285;50.894;5.462;2023-07-02T12:25:28;22.90;1.00
14401;DHT22;7285;50.894;5.462;2023-07-02T12:27:55;22.40;1.00
14401;DHT22;7285;50.894;5.462;2023-07-02T12:30:22;22.20;1.00
14401;DHT22;7285;50.894;5.462;2023-07-02T12:32:50;22.30;1.00
14401;DHT22;7285;50.894;5.462;2023-07-02T12:35:17;22.10;99.90
14401;DHT22;7285;50.894;5.462;2023-07-02T12:37:45;22.30;99.90
14401;DHT22;7285;50.894;5.462;2023-07-02T12:40:12;22.90;99.90
14401;DHT22;7285;50.894;5.462;2023-07-02T12:42:40;22.70;99.90
14401;DHT22;7285;50.894;5.462;2023-07-02T12:45:09;22.50;99.90
14401;DHT22;7285;50.894;5.462;2023-07-02T12:47:37;22.60;99.90
14401;DHT22;7285;50.894;5.462;2023-07-02T12:50:06;22.50;99.90
14401;DHT22;7285;50.894;5.462;2023-07-02T12:52:33;22.60;99.90
14401;DHT22;7285;50.894;5.462;2023-07-02T12:55:00;22.70;99.90
14401;DHT22;7285;50.894;5.462;2023-07-02T12:57:28;23.20;99.90
14401;DHT22;7285;50.894;5.462;2023-07-02T12:59:55;23.70;99.90
14401;DHT22;7285;50.894;5.462;2023-07-02T13:02:23;24.30;99.90
14401;DHT22;7285;50.894;5.462;2023-07-02T13:04:50;24.40;99.90
14401;DHT22;7285;50.894;5.462;2023-07-02T13:07:18;24.00;99.90
14401;DHT22;7285;50.894;5.462;2023-07-02T13:09:45;23.30;99.90
14401;DHT22;7285;50.894;5.462;2023-07-02T13:12:12;23.00;99.90
14401;DHT22;7285;50.894;5.462;2023-07-02T13:14:40;22.80;99.90
14401;DHT22;7285;50.894;5.462;2023-07-02T13:17:06;22.70;99.90
14401;DHT22;7285;50.894;5.462;2023-07-02T13:19:33;22.60;99.90
14401;DHT22;7285;50.894;5.462;2023-07-02T13:22:01;23.20;99.90
14401;DHT22;7285;50.894;5.462;2023-07-02T13:24:33;23.80;99.90
14401;DHT22;7285;50.894;5.462;2023-07-02T13:27:02;24.00;99.90
14401;DHT22;7285;50.894;5.462;2023-07-02T13:29:30;24.20;99.90
14401;DHT22;7285;50.894;5.462;2023-07-02T13:31:57;24.40;99.90
14401;DHT22;7285;50.894;5.462;2023-07-02T13:34:24;24.60;99.90
14401;DHT22;7285;50.894;5.462;2023-07-02T13:36:51;24.90;99.90
14401;DHT22;7285;50.894;5.462;2023-07-02T13:39:18;24.80;99.90
14401;DHT22;7285;50.894;5.462;2023-07-02T13:41:46;24.70;99.90
14401;DHT22;7285;50.894;5.462;2023-07-02T13:44:14;23.90;99.90
14401;DHT22;7285;50.894;5.462;2023-07-02T13:46:42;23.80;99.90
14401;DHT22;7285;50.894;5.462;2023-07-02T13:49:09;23.60;99.90
14401;DHT22;7285;50.894;5.462;2023-07-02T13:51:36;24.00;99.90
14401;DHT22;7285;50.894;5.462;2023-07-02T13:54:03;23.60;99.90
14401;DHT22;7285;50.894;5.462;2023-07-02T13:56:30;23.20;99.90
14401;DHT22;7285;50.894;5.462;2023-07-02T13:59:04;23.00;99.90
14401;DHT22;7285;50.894;5.462;2023-07-02T14:01:31;23.10;99.90
14401;DHT22;7285;50.894;5.462;2023-07-02T14:03:59;23.40;99.90
14401;DHT22;7285;50.894;5.462;2023-07-02T14:06:26;23.40;99.90
14401;DHT22;7285;50.894;5.462;2023-07-02T14:08:54;23.80;99.90
14401;DHT22;7285;50.894;5.462;2023-07-02T14:11:21;24.10;99.90
14401;DHT22;7285;50.894;5.462;2023-07-02T14:13:48;24.00;99.90
14401;DHT22;7285;50.894;5.462;2023-07-02T14:16:16;23.60;99.90
14401;DHT22;7285;50.894;5.462;2023-07-02T14:18:43;23.60;99.90
14401;DHT22;7285;50.894;5.462;2023-07-02T14:21:10;24.20;99.90
14401;DHT22;7285;50.894;5.462;2023-07-02T14:23:37;24.50;99.90
14401;DHT22;7285;50.894;5.462;2023-07-02T14:26:04;24.60;99.90
14401;DHT22;7285;50.894;5.462;2023-07-02T14:28:31;24.80;99.90
14401;DHT22;7285;50.894;5.462;2023-07-02T14:30:59;25.30;99.90
14401;DHT22;7285;50.894;5.462;2023-07-02T14:33:29;24.80;99.90
14401;DHT22;7285;50.894;5.462;2023-07-02T14:35:56;25.10;99.90
14401;DHT22;7285;50.894;5.462;2023-07-02T14:38:23;24.70;99.90
14401;DHT22;7285;50.894;5.462;2023-07-02T14:40:52;24.90;99.90
14401;DHT22;7285;50.894;5.462;2023-07-02T14:43:20;24.90;99.90
14401;DHT22;7285;50.894;5.462;2023-07-02T14:45:48;25.30;99.90
14401;DHT22;7285;50.894;5.462;2023-07-02T14:48:15;25.60;99.90
14401;DHT22;7285;50.894;5.462;2023-07-02T14:50:45;25.70;99.90
14401;DHT22;7285;50.894;5.462;2023-07-02T14:53:14;25.60;99.90
14401;DHT22;7285;50.894;5.462;2023-07-02T14:55:41;25.50;99.90
14401;DHT22;7285;50.894;5.462;2023-07-02T14:58:08;25.70;99.90
14401;DHT22;7285;50.894;5.462;2023-07-02T15:00:36;25.30;99.90
14401;DHT22;7285;50.894;5.462;2023-07-02T15:03:08;25.10;99.90
14401;DHT22;7285;50.894;5.462;2023-07-02T15:05:36;25.60;99.90
14401;DHT22;7285;50.894;5.462;2023-07-02T15:08:04;25.50;99.90
14401;DHT22;7285;50.894;5.462;2023-07-02T15:10:31;26.00;99.90
14401;DHT22;7285;50.894;5.462;2023-07-02T15:12:58;26.30;99.90
14401;DHT22;7285;50.894;5.462;2023-07-02T15:15:25;26.30;99.90
14401;DHT22;7285;50.894;5.462;2023-07-02T15:17:51;25.40;99.90
14401;DHT22;7285;50.894;5.462;2023-07-02T15:20:18;25.30;99.90
14401;DHT22;7285;50.894;5.462;2023-07-02T15:22:45;25.90;99.90
14401;DHT22;7285;50.894;5.462;2023-07-02T15:25:14;25.30;99.90
14401;DHT22;7285;50.894;5.462;2023-07-02T15:27:41;25.10;99.90
14401;DHT22;7285;50.894;5.462;2023-07-02T15:30:08;24.40;99.90
14401;DHT22;7285;50.894;5.462;2023-07-02T15:32:35;24.10;99.90
14401;DHT22;7285;50.894;5.462;2023-07-02T15:35:03;23.90;99.90
14401;DHT22;7285;50.894;5.462;2023-07-02T15:37:30;23.90;99.90
14401;DHT22;7285;50.894;5.462;2023-07-02T15:39:57;23.60;99.90
14401;DHT22;7285;50.894;5.462;2023-07-02T15:42:25;24.00;99.90
14401;DHT22;7285;50.894;5.462;2023-07-02T15:44:57;24.30;99.90
14401;DHT22;7285;50.894;5.462;2023-07-02T15:47:24;24.20;99.90
14401;DHT22;7285;50.894;5.462;2023-07-02T15:49:51;24.00;99.90
14401;DHT22;7285;50.894;5.462;2023-07-02T15:52:19;23.60;99.90
14401;DHT22;7285;50.894;5.462;2023-07-02T15:54:46;23.50;99.90
14401;DHT22;7285;50.894;5.462;2023-07-02T15:57:13;24.00;99.90
14401;DHT22;7285;50.894;5.462;2023-07-02T15:59:42;24.30;99.90